sensor_id;sensor_type;location;lat;lon;timestamp;temperature;humidity
22112;DHT22;11222;50.872;4.312;2023-05-10T00:00:58;13.60;99.90
22112;DHT22;11222;50.872;4.312;2023-05-10T00:03:23;13.70;99.90
22112;DHT22;11222;50.872;4.312;2023-05-10T00:05:49;13.70;99.90
22112;DHT22;11222;50.872;4.312;2023-05-10T00:08:15;13.70;99.90
22112;DHT22;11222;50.872;4.312;2023-05-10T00:10:41;13.80;99.90
22112;DHT22;11222;50.872;4.312;2023-05-10T00:13:06;13.70;99.90
22112;DHT22;11222;50.872;4.312;2023-05-10T00:15:32;13.70;99.90
22112;DHT22;11222;50.872;4.312;2023-05-10T00:17:58;13.70;99.90
22112;DHT22;11222;50.872;4.312;2023-05-10T00:20:24;13.60;99.90
22112;DHT22;11222;50.872;4.312;2023-05-10T00:22:49;13.70;99.90
22112;DHT22;11222;50.872;4.312;2023-05-10T00:25:15;13.70;99.90
22112;DHT22;11222;50.872;4.312;2023-05-10T00:27:41;13.60;99.90
22112;DHT22;11222;50.872;4.312;2023-05-10T00:30:07;13.70;99.90
22112;DHT22;11222;50.872;4.312;2023-05-10T00:32:33;13.70;99.90
22112;DHT22;11222;50.872;4.312;2023-05-10T00:34:58;13.70;99.90
22112;DHT22;11222;50.872;4.312;2023-05-10T00:37:24;13.70;99.90
22112;DHT22;11222;50.872;4.312;2023-05-10T00:39:50;13.80;99.90
22112;DHT22;11222;50.872;4.312;2023-05-10T00:42:16;13.80;99.90
22112;DHT22;11222;50.872;4.312;2023-05-10T00:44:41;13.80;99.90
22112;DHT22;11222;50.872;4.312;2023-05-10T00:47:07;13.80;99.90
22112;DHT22;11222;50.872;4.312;2023-05-10T00:49:34;13.80;99.90
22112;DHT22;11222;50.872;4.312;2023-05-10T00:52:01;13.70;99.90
22112;DHT22;11222;50.872;4.312;2023-05-10T00:54:27;13.70;99.90
22112;DHT22;11222;50.872;4.312;2023-05-10T00:56:53;13.70;99.90
22112;DHT22;11222;50.872;4.312;2023-05-10T00:59:18;13.70;99.90
22112;DHT22;11222;50.872;4.312;2023-05-10T01:01:45;13.70;99.90
22112;DHT22;11222;50.872;4.312;2023-05-10T01:04:15;13.60;99.90
22112;DHT22;11222;50.872;4.312;2023-05-10T01:06:41;13.50;99.90
22112;DHT22;11222;50.872;4.312;2023-05-10T01:09:07;13.50;99.90
22112;DHT22;11222;50.872;4.312;2023-05-10T01:11:38;13.60;99.90
22112;DHT22;11222;50.872;4.312;2023-05-10T01:14:05;13.60;99.90
22112;DHT22;11222;50.872;4.312;2023-05-10T01:16:41;13.50;99.90
22112;DHT22;11222;50.872;4.312;2023-05-10T01:19:16;13.60;99.90
22112;DHT22;11222;50.872;4.312;2023-05-10T01:24:50;13.60;99.90
22112;DHT22;11222;50.872;4.312;2023-05-10T01:32:31;13.60;99.90
22112;DHT22;11222;50.872;4.312;2023-05-10T01:35:02;13.60;99.90
22112;DHT22;11222;50.872;4.312;2023-05-10T01:38:07;13.60;99.90
22112;DHT22;11222;50.872;4.312;2023-05-10T01:40:48;13.70;99.90
22112;DHT22;11222;50.872;4.312;2023-05-10T01:43:26;13.70;99.90
22112;DHT22;11222;50.872;4.312;2023-05-10T01:46:09;13.70;99.90
22112;DHT22;11222;50.872;4.312;2023-05-10T01:48:47;13.70;99.90
22112;DHT22;11222;50.872;4.312;2023-05-10T01:51:19;13.70;99.90
22112;DHT22;11222;50.872;4.312;2023-05-10T01:53:47;13.60;99.90
22112;DHT22;11222;50.872;4.312;2023-05-10T01:56:15;13.60;99.90
22112;DHT22;11222;50.872;4.312;2023-05-10T01:58:45;13.60;99.90
22112;DHT22;11222;50.872;4.312;2023-05-10T02:01:13;13.60;99.90
22112;DHT22;11222;50.872;4.312;2023-05-10T02:03:40;13.60;99.90
22112;DHT22;11222;50.872;4.312;2023-05-10T02:06:07;13.70;99.90
22112;DHT22;11222;50.872;4.312;2023-05-10T02:08:35;13.60;99.90
22112;DHT22;11222;50.872;4.312;2023-05-10T02:11:02;13.60;99.90
22112;DHT22;11222;50.872;4.312;2023-05-10T02:13:29;13.60;99.90
22112;DHT22;11222;50.872;4.312;2023-05-10T02:15:57;13.60;99.90
22112;DHT22;11222;50.872;4.312;2023-05-10T02:18:25;13.50;99.90
22112;DHT22;11222;50.872;4.312;2023-05-10T02:20:52;13.50;99.90
22112;DHT22;11222;50.872;4.312;2023-05-10T02:23:20;13.40;99.90
22112;DHT22;11222;50.872;4.312;2023-05-10T02:25:48;13.30;99.90
22112;DHT22;11222;50.872;4.312;2023-05-10T02:28:14;13.30;99.90
22112;DHT22;11222;50.872;4.312;2023-05-10T02:30:41;13.30;99.90
22112;DHT22;11222;50.872;4.312;2023-05-10T02:33:07;13.30;99.90
22112;DHT22;11222;50.872;4.312;2023-05-10T02:35:34;13.20;99.90
22112;DHT22;11222;50.872;4.312;2023-05-10T02:38:00;13.20;99.90
22112;DHT22;11222;50.872;4.312;2023-05-10T02:40:27;13.20;99.90
22112;DHT22;11222;50.872;4.312;2023-05-10T02:42:56;13.30;99.90
22112;DHT22;11222;50.872;4.312;2023-05-10T02:45:25;13.30;99.90
22112;DHT22;11222;50.872;4.312;2023-05-10T02:47:53;13.30;99.90
22112;DHT22;11222;50.872;4.312;2023-05-10T02:50:19;13.30;99.90
22112;DHT22;11222;50.872;4.312;2023-05-10T02:52:56;13.30;99.90
22112;DHT22;11222;50.872;4.312;2023-05-10T02:55:26;13.30;99.90
22112;DHT22;11222;50.872;4.312;2023-05-10T02:58:00;13.40;99.90
22112;DHT22;11222;50.872;4.312;2023-05-10T03:00:26;13.40;99.90
22112;DHT22;11222;50.872;4.312;2023-05-10T03:02:52;13.40;99.90
22112;DHT22;11222;50.872;4.312;2023-05-10T03:05:18;13.50;99.90
22112;DHT22;11222;50.872;4.312;2023-05-10T03:07:45;13.50;99.90
22112;DHT22;11222;50.872;4.312;2023-05-10T03:10:11;13.50;99.90
22112;DHT22;11222;50.872;4.312;2023-05-10T03:18:10;13.30;99.90
22112;DHT22;11222;50.872;4.312;2023-05-10T03:20:42;13.30;99.90
22112;DHT22;11222;50.872;4.312;2023-05-10T03:23:51;13.40;99.90
22112;DHT22;11222;50.872;4.312;2023-05-10T03:26:24;13.50;99.90
22112;DHT22;11222;50.872;4.312;2023-05-10T03:28:51;13.40;99.90
22112;DHT22;11222;50.872;4.312;2023-05-10T03:31:18;13.30;99.90
22112;DHT22;11222;50.872;4.312;2023-05-10T03:33:51;13.10;99.90
22112;DHT22;11222;50.872;4.312;2023-05-10T03:36:18;13.10;99.90
22112;DHT22;11222;50.872;4.312;2023-05-10T03:38:43;13.20;99.90
22112;DHT22;11222;50.872;4.312;2023-05-10T03:41:09;13.20;99.90
22112;DHT22;11222;50.872;4.312;2023-05-10T03:43:35;13.20;99.90
22112;DHT22;11222;50.872;4.312;2023-05-10T03:46:04;13.20;99.90
22112;DHT22;11222;50.872;4.312;2023-05-10T03:48:32;13.30;99.90
22112;DHT22;11222;50.872;4.312;2023-05-10T03:50:57;13.30;99.90
22112;DHT22;11222;50.872;4.312;2023-05-10T03:53:23;13.30;99.90
22112;DHT22;11222;50.872;4.312;2023-05-10T03:55:49;13.40;99.90
22112;DHT22;11222;50.872;4.312;2023-05-10T03:58:15;13.30;99.90
22112;DHT22;11222;50.872;4.312;2023-05-10T04:00:40;13.30;99.90
22112;DHT22;11222;50.872;4.312;2023-05-10T04:03:11;13.30;99.90
22112;DHT22;11222;50.872;4.312;2023-05-10T04:05:37;13.30;99.90
22112;DHT22;11222;50.872;4.312;2023-05-10T04:08:03;13.30;99.90
22112;DHT22;11222;50.872;4.312;2023-05-10T04:10:29;13.20;99.90
22112;DHT22;11222;50.872;4.312;2023-05-10T04:12:55;13.20;99.90
22112;DHT22;11222;50.872;4.312;2023-05-10T04:15:21;13.20;99.90
22112;DHT22;11222;50.872;4.312;2023-05-10T04:17:46;13.20;99.90
22112;DHT22;11222;50.872;4.312;2023-05-10T04:20:12;13.20;99.90
22112;DHT22;11222;50.872;4.312;2023-05-10T04:22:38;13.20;99.90
22112;DHT22;11222;50.872;4.312;2023-05-10T04:25:04;13.20;99.90
22112;DHT22;11222;50.872;4.312;2023-05-10T04:27:30;13.30;99.90
22112;DHT22;11222;50.872;4.312;2023-05-10T04:29:56;13.40;99.90
22112;DHT22;11222;50.872;4.312;2023-05-10T04:32:22;13.40;99.90
22112;DHT22;11222;50.872;4.312;2023-05-10T04:34:48;13.50;99.90
22112;DHT22;11222;50.872;4.312;2023-05-10T04:37:14;13.50;99.90
22112;DHT22;11222;50.872;4.312;2023-05-10T04:39:40;13.60;99.90
22112;DHT22;11222;50.872;4.312;2023-05-10T04:42:06;13.70;99.90
22112;DHT22;11222;50.872;4.312;2023-05-10T04:44:32;13.70;99.90
22112;DHT22;11222;50.872;4.312;2023-05-10T04:46:58;13.70;99.90
22112;DHT22;11222;50.872;4.312;2023-05-10T04:49:24;13.80;99.90
22112;DHT22;11222;50.872;4.312;2023-05-10T04:51:50;13.80;99.90
22112;DHT22;11222;50.872;4.312;2023-05-10T04:54:15;13.80;99.90
22112;DHT22;11222;50.872;4.312;2023-05-10T04:56:41;13.80;99.90
22112;DHT22;11222;50.872;4.312;2023-05-10T04:59:07;13.90;99.90
22112;DHT22;11222;50.872;4.312;2023-05-10T05:01:32;13.90;99.90
22112;DHT22;11222;50.872;4.312;2023-05-10T05:03:58;13.80;99.90
22112;DHT22;11222;50.872;4.312;2023-05-10T05:06:24;13.80;99.90
22112;DHT22;11222;50.872;4.312;2023-05-10T05:08:50;13.80;99.90
22112;DHT22;11222;50.872;4.312;2023-05-10T05:11:17;13.70;99.90
22112;DHT22;11222;50.872;4.312;2023-05-10T05:13:43;13.60;99.90
22112;DHT22;11222;50.872;4.312;2023-05-10T05:16:09;13.50;99.90
22112;DHT22;11222;50.872;4.312;2023-05-10T05:18:35;13.40;99.90
22112;DHT22;11222;50.872;4.312;2023-05-10T05:21:01;13.50;99.90
22112;DHT22;11222;50.872;4.312;2023-05-10T05:23:27;13.40;99.90
22112;DHT22;11222;50.872;4.312;2023-05-10T05:25:53;13.50;99.90
22112;DHT22;11222;50.872;4.312;2023-05-10T05:28:21;13.60;99.90
22112;DHT22;11222;50.872;4.312;2023-05-10T05:30:47;13.50;99.90
22112;DHT22;11222;50.872;4.312;2023-05-10T05:33:15;13.50;99.90
22112;DHT22;11222;50.872;4.312;2023-05-10T05:35:41;13.60;99.90
22112;DHT22;11222;50.872;4.312;2023-05-10T05:38:10;13.60;99.90
22112;DHT22;11222;50.872;4.312;2023-05-10T05:40:35;13.50;99.90
22112;DHT22;11222;50.872;4.312;2023-05-10T05:43:01;13.40;99.90
22112;DHT22;11222;50.872;4.312;2023-05-10T05:45:26;13.50;99.90
22112;DHT22;11222;50.872;4.312;2023-05-10T05:47:52;13.40;99.90
22112;DHT22;11222;50.872;4.312;2023-05-10T05:50:18;13.40;99.90
22112;DHT22;11222;50.872;4.312;2023-05-10T05:52:43;13.40;99.90
22112;DHT22;11222;50.872;4.312;2023-05-10T05:55:09;13.40;99.90
22112;DHT22;11222;50.872;4.312;2023-05-10T05:57:35;13.50;99.90
22112;DHT22;11222;50.872;4.312;2023-05-10T06:00:00;13.50;99.90
22112;DHT22;11222;50.872;4.312;2023-05-10T06:02:27;13.50;99.90
22112;DHT22;11222;50.872;4.312;2023-05-10T06:04:53;13.50;99.90
22112;DHT22;11222;50.872;4.312;2023-05-10T06:07:19;13.60;99.90
22112;DHT22;11222;50.872;4.312;2023-05-10T06:09:44;13.60;99.90
22112;DHT22;11222;50.872;4.312;2023-05-10T06:12:10;13.60;99.90
22112;DHT22;11222;50.872;4.312;2023-05-10T06:14:37;13.50;99.90
22112;DHT22;11222;50.872;4.312;2023-05-10T06:17:02;13.50;99.90
22112;DHT22;11222;50.872;4.312;2023-05-10T06:19:30;13.40;99.90
22112;DHT22;11222;50.872;4.312;2023-05-10T06:21:56;13.50;99.90
22112;DHT22;11222;50.872;4.312;2023-05-10T06:24:21;13.50;99.90
22112;DHT22;11222;50.872;4.312;2023-05-10T06:26:47;13.60;99.90
22112;DHT22;11222;50.872;4.312;2023-05-10T06:29:15;13.60;99.90
22112;DHT22;11222;50.872;4.312;2023-05-10T06:31:40;13.60;99.90
22112;DHT22;11222;50.872;4.312;2023-05-10T06:34:06;13.60;99.90
22112;DHT22;11222;50.872;4.312;2023-05-10T06:36:33;13.60;99.90
22112;DHT22;11222;50.872;4.312;2023-05-10T06:38:59;13.50;99.90
22112;DHT22;11222;50.872;4.312;2023-05-10T06:41:24;13.60;99.90
22112;DHT22;11222;50.872;4.312;2023-05-10T06:43:50;13.50;99.90
22112;DHT22;11222;50.872;4.312;2023-05-10T06:46:16;13.50;99.90
22112;DHT22;11222;50.872;4.312;2023-05-10T06:48:41;13.40;99.90
22112;DHT22;11222;50.872;4.312;2023-05-10T06:51:07;13.50;99.90
22112;DHT22;11222;50.872;4.312;2023-05-10T06:53:33;13.50;99.90
22112;DHT22;11222;50.872;4.312;2023-05-10T06:55:58;13.50;99.90
22112;DHT22;11222;50.872;4.312;2023-05-10T06:58:24;13.50;99.90
22112;DHT22;11222;50.872;4.312;2023-05-10T07:00:50;13.40;99.90
22112;DHT22;11222;50.872;4.312;2023-05-10T07:03:16;13.40;99.90
22112;DHT22;11222;50.872;4.312;2023-05-10T07:05:41;13.50;99.90
22112;DHT22;11222;50.872;4.312;2023-05-10T07:08:07;13.50;99.90
22112;DHT22;11222;50.872;4.312;2023-05-10T07:10:33;13.50;99.90
22112;DHT22;11222;50.872;4.312;2023-05-10T07:12:59;13.40;99.90
22112;DHT22;11222;50.872;4.312;2023-05-10T07:15:26;13.30;99.90
22112;DHT22;11222;50.872;4.312;2023-05-10T07:17:52;13.40;99.90
22112;DHT22;11222;50.872;4.312;2023-05-10T07:20:18;13.30;99.90
22112;DHT22;11222;50.872;4.312;2023-05-10T07:22:43;13.30;99.90
22112;DHT22;11222;50.872;4.312;2023-05-10T07:25:09;13.40;99.90
22112;DHT22;11222;50.872;4.312;2023-05-10T07:27:36;13.50;99.90
22112;DHT22;11222;50.872;4.312;2023-05-10T07:30:02;13.50;99.90
22112;DHT22;11222;50.872;4.312;2023-05-10T07:32:28;13.50;99.90
22112;DHT22;11222;50.872;4.312;2023-05-10T07:34:53;13.50;99.90
22112;DHT22;11222;50.872;4.312;2023-05-10T07:37:19;13.50;99.90
22112;DHT22;11222;50.872;4.312;2023-05-10T07:39:45;13.60;99.90
22112;DHT22;11222;50.872;4.312;2023-05-10T07:42:11;13.50;99.90
22112;DHT22;11222;50.872;4.312;2023-05-10T07:44:37;13.50;99.90
22112;DHT22;11222;50.872;4.312;2023-05-10T07:47:03;13.40;99.90
22112;DHT22;11222;50.872;4.312;2023-05-10T07:49:29;13.30;99.90
22112;DHT22;11222;50.872;4.312;2023-05-10T07:51:54;13.30;99.90
22112;DHT22;11222;50.872;4.312;2023-05-10T07:54:20;13.40;99.90
22112;DHT22;11222;50.872;4.312;2023-05-10T07:56:46;13.40;99.90
22112;DHT22;11222;50.872;4.312;2023-05-10T07:59:16;13.50;99.90
22112;DHT22;11222;50.872;4.312;2023-05-10T08:01:43;13.60;99.90
22112;DHT22;11222;50.872;4.312;2023-05-10T08:04:09;13.70;99.90
22112;DHT22;11222;50.872;4.312;2023-05-10T08:06:34;13.60;99.90
22112;DHT22;11222;50.872;4.312;2023-05-10T08:09:00;13.40;99.90
22112;DHT22;11222;50.872;4.312;2023-05-10T08:11:26;13.50;99.90
22112;DHT22;11222;50.872;4.312;2023-05-10T08:13:55;13.50;99.90
22112;DHT22;11222;50.872;4.312;2023-05-10T08:16:20;13.50;99.90
22112;DHT22;11222;50.872;4.312;2023-05-10T08:18:47;13.50;99.90
22112;DHT22;11222;50.872;4.312;2023-05-10T08:21:13;13.40;99.90
22112;DHT22;11222;50.872;4.312;2023-05-10T08:23:39;13.50;99.90
22112;DHT22;11222;50.872;4.312;2023-05-10T08:26:06;13.50;99.90
22112;DHT22;11222;50.872;4.312;2023-05-10T08:28:32;13.60;99.90
22112;DHT22;11222;50.872;4.312;2023-05-10T08:30:57;13.50;99.90
22112;DHT22;11222;50.872;4.312;2023-05-10T08:33:23;13.50;99.90
22112;DHT22;11222;50.872;4.312;2023-05-10T08:35:49;13.60;99.90
22112;DHT22;11222;50.872;4.312;2023-05-10T08:38:14;13.70;99.90
22112;DHT22;11222;50.872;4.312;2023-05-10T08:40:44;13.80;99.90
22112;DHT22;11222;50.872;4.312;2023-05-10T08:43:12;13.80;99.90
22112;DHT22;11222;50.872;4.312;2023-05-10T08:45:49;13.80;99.90
22112;DHT22;11222;50.872;4.312;2023-05-10T08:48:16;14.00;99.90
22112;DHT22;11222;50.872;4.312;2023-05-10T08:50:42;13.90;99.90
22112;DHT22;11222;50.872;4.312;2023-05-10T08:53:13;13.90;99.90
22112;DHT22;11222;50.872;4.312;2023-05-10T08:55:39;13.90;99.90
22112;DHT22;11222;50.872;4.312;2023-05-10T08:58:08;13.90;99.90
22112;DHT22;11222;50.872;4.312;2023-05-10T09:00:34;13.80;99.90
22112;DHT22;11222;50.872;4.312;2023-05-10T09:03:01;13.80;99.90
22112;DHT22;11222;50.872;4.312;2023-05-10T09:05:27;13.70;99.90
22112;DHT22;11222;50.872;4.312;2023-05-10T09:07:53;13.70;99.90
22112;DHT22;11222;50.872;4.312;2023-05-10T09:10:20;13.70;99.90
22112;DHT22;11222;50.872;4.312;2023-05-10T09:12:46;13.80;99.90
22112;DHT22;11222;50.872;4.312;2023-05-10T09:15:15;13.90;99.90
22112;DHT22;11222;50.872;4.312;2023-05-10T09:17:42;14.00;99.90
22112;DHT22;11222;50.872;4.312;2023-05-10T09:20:09;14.00;99.90
22112;DHT22;11222;50.872;4.312;2023-05-10T09:22:35;14.00;99.90
22112;DHT22;11222;50.872;4.312;2023-05-10T09:27:35;13.90;99.90
22112;DHT22;11222;50.872;4.312;2023-05-10T09:30:02;13.80;99.90
22112;DHT22;11222;50.872;4.312;2023-05-10T09:32:39;13.70;99.90
22112;DHT22;11222;50.872;4.312;2023-05-10T09:35:12;13.70;99.90
22112;DHT22;11222;50.872;4.312;2023-05-10T09:37:43;13.70;99.90
22112;DHT22;11222;50.872;4.312;2023-05-10T09:40:24;13.60;99.90
22112;DHT22;11222;50.872;4.312;2023-05-10T09:43:09;13.60;99.90
22112;DHT22;11222;50.872;4.312;2023-05-10T09:45:36;13.60;99.90
22112;DHT22;11222;50.872;4.312;2023-05-10T09:48:04;13.50;99.90
22112;DHT22;11222;50.872;4.312;2023-05-10T09:50:30;13.60;99.90
22112;DHT22;11222;50.872;4.312;2023-05-10T09:55:40;13.70;99.90
22112;DHT22;11222;50.872;4.312;2023-05-10T09:58:06;13.90;99.90
22112;DHT22;11222;50.872;4.312;2023-05-10T10:00:37;13.90;99.90
22112;DHT22;11222;50.872;4.312;2023-05-10T10:03:03;13.90;99.90
22112;DHT22;11222;50.872;4.312;2023-05-10T10:07:57;14.00;99.90
22112;DHT22;11222;50.872;4.312;2023-05-10T10:10:24;14.00;99.90
22112;DHT22;11222;50.872;4.312;2023-05-10T10:12:51;14.00;99.90
22112;DHT22;11222;50.872;4.312;2023-05-10T10:15:17;14.10;99.90
22112;DHT22;11222;50.872;4.312;2023-05-10T10:17:43;14.00;99.90
22112;DHT22;11222;50.872;4.312;2023-05-10T10:20:09;14.00;99.90
22112;DHT22;11222;50.872;4.312;2023-05-10T10:22:36;14.10;99.90
22112;DHT22;11222;50.872;4.312;2023-05-10T10:25:04;14.00;99.90
22112;DHT22;11222;50.872;4.312;2023-05-10T10:30:37;14.40;99.90
22112;DHT22;11222;50.872;4.312;2023-05-10T10:36:00;14.90;99.90
22112;DHT22;11222;50.872;4.312;2023-05-10T10:38:34;15.00;99.90
22112;DHT22;11222;50.872;4.312;2023-05-10T10:41:33;15.20;99.90
22112;DHT22;11222;50.872;4.312;2023-05-10T10:49:26;14.80;99.90
22112;DHT22;11222;50.872;4.312;2023-05-10T10:55:06;14.70;99.90
22112;DHT22;11222;50.872;4.312;2023-05-10T10:57:53;14.50;99.90
22112;DHT22;11222;50.872;4.312;2023-05-10T11:00:28;14.50;99.90
22112;DHT22;11222;50.872;4.312;2023-05-10T11:05:38;14.50;99.90
22112;DHT22;11222;50.872;4.312;2023-05-10T11:13:44;14.80;99.90
22112;DHT22;11222;50.872;4.312;2023-05-10T11:16:40;15.10;99.90
22112;DHT22;11222;50.872;4.312;2023-05-10T11:19:16;15.10;99.90
22112;DHT22;11222;50.872;4.312;2023-05-10T11:21:50;15.40;99.90
22112;DHT22;11222;50.872;4.312;2023-05-10T11:24:21;15.30;99.90
22112;DHT22;11222;50.872;4.312;2023-05-10T11:26:50;15.60;99.90
22112;DHT22;11222;50.872;4.312;2023-05-10T11:29:17;15.60;99.90
22112;DHT22;11222;50.872;4.312;2023-05-10T11:31:44;15.80;99.90
22112;DHT22;11222;50.872;4.312;2023-05-10T11:34:10;15.80;99.90
22112;DHT22;11222;50.872;4.312;2023-05-10T11:36:36;15.60;99.90
22112;DHT22;11222;50.872;4.312;2023-05-10T11:39:03;15.50;99.90
22112;DHT22;11222;50.872;4.312;2023-05-10T11:41:30;15.50;99.90
22112;DHT22;11222;50.872;4.312;2023-05-10T11:43:57;15.40;99.90
22112;DHT22;11222;50.872;4.312;2023-05-10T11:46:25;15.40;99.90
22112;DHT22;11222;50.872;4.312;2023-05-10T11:48:56;15.40;99.90
22112;DHT22;11222;50.872;4.312;2023-05-10T11:51:23;15.50;99.90
22112;DHT22;11222;50.872;4.312;2023-05-10T11:53:53;15.40;99.90
22112;DHT22;11222;50.872;4.312;2023-05-10T11:56:19;15.40;99.90
22112;DHT22;11222;50.872;4.312;2023-05-10T11:58:54;15.40;99.90
22112;DHT22;11222;50.872;4.312;2023-05-10T12:01:21;15.40;99.90
22112;DHT22;11222;50.872;4.312;2023-05-10T12:03:47;15.40;99.90
22112;DHT22;11222;50.872;4.312;2023-05-10T12:06:13;15.50;99.90
22112;DHT22;11222;50.872;4.312;2023-05-10T12:08:44;15.60;99.90
22112;DHT22;11222;50.872;4.312;2023-05-10T12:11:11;15.60;99.90
22112;DHT22;11222;50.872;4.312;2023-05-10T12:13:39;15.70;99.90
22112;DHT22;11222;50.872;4.312;2023-05-10T12:16:17;15.90;99.90
22112;DHT22;11222;50.872;4.312;2023-05-10T12:18:44;15.80;99.90
22112;DHT22;11222;50.872;4.312;2023-05-10T12:21:11;16.00;99.90
22112;DHT22;11222;50.872;4.312;2023-05-10T12:23:40;15.80;99.90
22112;DHT22;11222;50.872;4.312;2023-05-10T12:26:09;15.80;99.90
22112;DHT22;11222;50.872;4.312;2023-05-10T12:28:35;15.80;99.90
22112;DHT22;11222;50.872;4.312;2023-05-10T12:31:01;15.70;99.90
22112;DHT22;11222;50.872;4.312;2023-05-10T12:33:27;15.80;99.90
22112;DHT22;11222;50.872;4.312;2023-05-10T12:36:00;15.90;99.90
22112;DHT22;11222;50.872;4.312;2023-05-10T12:40:59;16.10;99.90
22112;DHT22;11222;50.872;4.312;2023-05-10T12:43:26;16.30;99.90
22112;DHT22;11222;50.872;4.312;2023-05-10T12:45:52;16.10;99.90
22112;DHT22;11222;50.872;4.312;2023-05-10T12:48:18;16.20;99.90
22112;DHT22;11222;50.872;4.312;2023-05-10T12:50:45;16.20;99.90
22112;DHT22;11222;50.872;4.312;2023-05-10T12:53:12;16.20;99.90
22112;DHT22;11222;50.872;4.312;2023-05-10T12:55:39;16.20;99.90
22112;DHT22;11222;50.872;4.312;2023-05-10T12:58:05;16.30;99.90
22112;DHT22;11222;50.872;4.312;2023-05-10T13:00:30;16.50;99.90
22112;DHT22;11222;50.872;4.312;2023-05-10T13:02:56;16.60;99.90
22112;DHT22;11222;50.872;4.312;2023-05-10T13:05:22;16.60;99.90
22112;DHT22;11222;50.872;4.312;2023-05-10T13:07:47;16.90;99.90
22112;DHT22;11222;50.872;4.312;2023-05-10T13:10:13;17.00;99.90
22112;DHT22;11222;50.872;4.312;2023-05-10T13:12:39;17.20;99.90
22112;DHT22;11222;50.872;4.312;2023-05-10T13:15:05;17.40;99.90
22112;DHT22;11222;50.872;4.312;2023-05-10T13:17:32;17.40;99.90
22112;DHT22;11222;50.872;4.312;2023-05-10T13:19:57;17.40;99.90
22112;DHT22;11222;50.872;4.312;2023-05-10T13:22:23;17.40;99.90
22112;DHT22;11222;50.872;4.312;2023-05-10T13:24:48;17.30;99.90
22112;DHT22;11222;50.872;4.312;2023-05-10T13:27:14;17.30;99.90
22112;DHT22;11222;50.872;4.312;2023-05-10T13:29:40;17.40;99.90
22112;DHT22;11222;50.872;4.312;2023-05-10T13:32:06;17.40;99.90
22112;DHT22;11222;50.872;4.312;2023-05-10T13:34:32;17.30;99.90
22112;DHT22;11222;50.872;4.312;2023-05-10T13:36:57;17.40;99.90
22112;DHT22;11222;50.872;4.312;2023-05-10T13:39:23;17.70;99.90
22112;DHT22;11222;50.872;4.312;2023-05-10T13:41:49;17.80;99.90
22112;DHT22;11222;50.872;4.312;2023-05-10T13:44:15;17.90;99.90
22112;DHT22;11222;50.872;4.312;2023-05-10T13:46:41;17.70;99.90
22112;DHT22;11222;50.872;4.312;2023-05-10T13:49:09;17.80;99.90
22112;DHT22;11222;50.872;4.312;2023-05-10T13:51:35;18.00;99.90
22112;DHT22;11222;50.872;4.312;2023-05-10T13:54:02;17.80;99.90
22112;DHT22;11222;50.872;4.312;2023-05-10T13:56:27;17.90;99.90
22112;DHT22;11222;50.872;4.312;2023-05-10T13:58:53;18.10;99.90
22112;DHT22;11222;50.872;4.312;2023-05-10T14:01:19;17.90;99.90
22112;DHT22;11222;50.872;4.312;2023-05-10T14:03:45;18.00;99.90
22112;DHT22;11222;50.872;4.312;2023-05-10T14:06:10;18.00;99.90
22112;DHT22;11222;50.872;4.312;2023-05-10T14:08:36;17.80;99.90
22112;DHT22;11222;50.872;4.312;2023-05-10T14:11:02;17.60;99.90
22112;DHT22;11222;50.872;4.312;2023-05-10T14:13:28;17.30;99.90
22112;DHT22;11222;50.872;4.312;2023-05-10T14:15:54;17.30;99.90
22112;DHT22;11222;50.872;4.312;2023-05-10T14:18:20;17.40;99.90
22112;DHT22;11222;50.872;4.312;2023-05-10T14:20:46;17.50;99.90
22112;DHT22;11222;50.872;4.312;2023-05-10T14:23:12;17.70;99.90
22112;DHT22;11222;50.872;4.312;2023-05-10T14:25:40;17.60;99.90
22112;DHT22;11222;50.872;4.312;2023-05-10T14:28:06;17.70;99.90
22112;DHT22;11222;50.872;4.312;2023-05-10T14:30:31;17.70;99.90
22112;DHT22;11222;50.872;4.312;2023-05-10T14:32:59;17.70;99.90
22112;DHT22;11222;50.872;4.312;2023-05-10T14:35:27;17.80;99.90
22112;DHT22;11222;50.872;4.312;2023-05-10T14:37:53;17.80;99.90
22112;DHT22;11222;50.872;4.312;2023-05-10T14:40:18;17.70;99.90
22112;DHT22;11222;50.872;4.312;2023-05-10T14:42:44;17.70;99.90
22112;DHT22;11222;50.872;4.312;2023-05-10T14:45:10;17.30;99.90
22112;DHT22;11222;50.872;4.312;2023-05-10T14:47:36;17.30;99.90
22112;DHT22;11222;50.872;4.312;2023-05-10T14:50:02;17.30;99.90
22112;DHT22;11222;50.872;4.312;2023-05-10T14:52:28;17.10;99.90
22112;DHT22;11222;50.872;4.312;2023-05-10T14:54:54;16.80;99.90
22112;DHT22;11222;50.872;4.312;2023-05-10T14:57:20;16.60;99.90
22112;DHT22;11222;50.872;4.312;2023-05-10T14:59:46;16.20;99.90
22112;DHT22;11222;50.872;4.312;2023-05-10T15:02:12;15.80;99.90
22112;DHT22;11222;50.872;4.312;2023-05-10T15:04:38;15.60;99.90
22112;DHT22;11222;50.872;4.312;2023-05-10T15:07:04;15.30;99.90
22112;DHT22;11222;50.872;4.312;2023-05-10T15:09:30;15.00;99.90
22112;DHT22;11222;50.872;4.312;2023-05-10T15:11:55;14.90;99.90
22112;DHT22;11222;50.872;4.312;2023-05-10T15:14:22;14.90;99.90
22112;DHT22;11222;50.872;4.312;2023-05-10T15:16:48;15.10;99.90
22112;DHT22;11222;50.872;4.312;2023-05-10T15:19:13;15.40;99.90
22112;DHT22;11222;50.872;4.312;2023-05-10T15:21:39;15.50;99.90
22112;DHT22;11222;50.872;4.312;2023-05-10T15:24:08;15.60;99.90
22112;DHT22;11222;50.872;4.312;2023-05-10T15:26:33;15.60;99.90
22112;DHT22;11222;50.872;4.312;2023-05-10T15:28:59;15.60;99.90
22112;DHT22;11222;50.872;4.312;2023-05-10T15:31:25;15.60;99.90
22112;DHT22;11222;50.872;4.312;2023-05-10T15:33:56;15.60;99.90
22112;DHT22;11222;50.872;4.312;2023-05-10T15:36:22;15.40;99.90
22112;DHT22;11222;50.872;4.312;2023-05-10T15:38:48;15.30;99.90
22112;DHT22;11222;50.872;4.312;2023-05-10T15:41:13;15.30;99.90
22112;DHT22;11222;50.872;4.312;2023-05-10T15:43:39;15.30;99.90
22112;DHT22;11222;50.872;4.312;2023-05-10T15:46:05;15.40;99.90
22112;DHT22;11222;50.872;4.312;2023-05-10T15:48:31;15.60;99.90
22112;DHT22;11222;50.872;4.312;2023-05-10T15:50:56;15.90;99.90
22112;DHT22;11222;50.872;4.312;2023-05-10T15:53:22;16.10;99.90
22112;DHT22;11222;50.872;4.312;2023-05-10T15:55:48;16.30;99.90
22112;DHT22;11222;50.872;4.312;2023-05-10T15:58:13;16.50;99.90
22112;DHT22;11222;50.872;4.312;2023-05-10T16:00:39;16.70;99.90
22112;DHT22;11222;50.872;4.312;2023-05-10T16:03:05;16.90;99.90
22112;DHT22;11222;50.872;4.312;2023-05-10T16:05:31;17.10;99.90
22112;DHT22;11222;50.872;4.312;2023-05-10T16:08:00;17.20;99.90
22112;DHT22;11222;50.872;4.312;2023-05-10T16:10:27;17.20;99.90
22112;DHT22;11222;50.872;4.312;2023-05-10T16:12:56;17.00;99.90
22112;DHT22;11222;50.872;4.312;2023-05-10T16:15:21;17.10;99.90
22112;DHT22;11222;50.872;4.312;2023-05-10T16:17:47;17.10;99.90